Time;durP1;ratioP1;P1;durP2;ratioP2;P2;SDS_P1;SDS_P2;PMS_P1;PMS_P2;Temp;Humidity;BMP_temperature;BMP_pressure;BME280_temperature;BME280_humidity;BME280_pressure;Samples;Min_cycle;Max_cycle;Signal;HPM_P1;HPM_P2
2020/12/08 00:02:07;;;;;;;22.20;11.57;;;;;;;-0.32;71.00;100076.95;1678818;82;21039;-82
2020/12/08 00:04:34;;;;;;;24.27;11.70;;;;;;;-0.34;71.02;100078.78;1689268;82;20966;-82
2020/12/08 00:07:00;;;;;;;25.83;12.27;;;;;;;-0.31;71.05;100077.30;1697400;82;21250;-82
2020/12/08 00:09:26;;;;;;;22.63;11.47;;;;;;;-0.38;71.09;100080.72;1684868;82;21718;-80
2020/12/08 00:11:51;;;;;;;23.57;11.47;;;;;;;-0.37;71.07;100081.93;1687654;82;20947;-81
2020/12/08 00:14:17;;;;;;;23.53;11.83;;;;;;;-0.49;71.41;100078.73;1699172;82;20990;-81
2020/12/08 00:16:43;;;;;;;24.33;12.17;;;;;;;-0.31;71.06;100092.43;1691802;82;20998;-81
2020/12/08 00:19:12;;;;;;;23.40;11.17;;;;;;;-0.30;71.03;100092.78;1696444;82;21266;-80
2020/12/08 00:21:42;;;;;;;20.97;11.38;;;;;;;-0.26;70.81;100085.67;1699187;82;21160;-81
2020/12/08 00:24:08;;;;;;;24.12;12.18;;;;;;;-0.20;70.62;100087.92;1688598;81;21235;-82
2020/12/08 00:26:36;;;;;;;24.13;12.00;;;;;;;-0.24;70.75;100084.64;1692639;82;21000;-80
2020/12/08 00:29:02;;;;;;;24.95;12.18;;;;;;;-0.19;70.79;100089.13;1683093;83;21167;-80
2020/12/08 00:31:28;;;;;;;26.90;13.13;;;;;;;-0.19;70.79;100080.48;1695167;81;21259;-80
2020/12/08 00:33:54;;;;;;;29.70;13.73;;;;;;;-0.27;70.87;100076.21;1689191;83;20990;-81
2020/12/08 00:36:21;;;;;;;23.12;11.70;;;;;;;-0.27;71.00;100087.89;1683599;82;21252;-83
2020/12/08 00:38:50;;;;;;;25.23;12.30;;;;;;;-0.41;71.01;100080.42;1694116;82;21187;-80
2020/12/08 00:41:21;;;;;;;18.55;10.13;;;;;;;-0.41;71.01;100080.42;1677795;83;21168;-82
2020/12/08 00:43:48;;;;;;;22.45;11.28;;;;;;;-0.32;70.99;100084.26;1690262;81;21213;-81
2020/12/08 00:46:16;;;;;;;22.00;11.48;;;;;;;-0.37;70.97;100080.63;1693696;82;21461;-83
2020/12/08 00:48:42;;;;;;;23.62;10.90;;;;;;;-0.48;71.16;100083.02;1687041;82;21763;-81
2020/12/08 00:51:08;;;;;;;21.60;11.03;;;;;;;-0.45;71.12;100088.47;1699819;82;22153;-81
2020/12/08 00:53:34;;;;;;;22.13;11.00;;;;;;;-0.45;71.09;100085.88;1703500;82;21058;-80
2020/12/08 00:55:59;;;;;;;21.77;11.27;;;;;;;-0.44;71.23;100088.37;1692956;82;21248;-83
2020/12/08 00:58:28;;;;;;;19.23;10.33;;;;;;;-0.45;71.25;100097.11;1680654;83;21026;-81
2020/12/08 01:00:54;;;;;;;25.95;12.30;;;;;;;-0.44;71.32;100093.56;1685147;82;21200;-81
2020/12/08 01:03:20;;;;;;;25.97;11.68;;;;;;;-0.41;71.10;100085.61;1691654;83;21668;-82
2020/12/08 01:05:45;;;;;;;21.93;10.70;;;;;;;-0.28;70.81;100092.69;1682034;82;21122;-82
2020/12/08 01:08:11;;;;;;;22.60;11.20;;;;;;;-0.31;70.69;100088.98;1691077;82;21276;-82
2020/12/08 01:10:37;;;;;;;23.33;10.33;;;;;;;-0.38;70.72;100080.25;1690451;82;20962;-82
2020/12/08 01:13:03;;;;;;;25.73;12.13;;;;;;;-0.55;70.63;100078.61;1691466;82;20981;-83
2020/12/08 01:15:29;;;;;;;22.77;11.43;;;;;;;-0.55;70.90;100086.39;1690387;81;21972;-82
2020/12/08 01:17:54;;;;;;;23.33;11.33;;;;;;;-0.58;70.84;100094.34;1692561;82;21670;-81
2020/12/08 01:20:20;;;;;;;26.97;11.57;;;;;;;-0.62;70.76;100079.05;1693051;82;21913;-81
2020/12/08 01:22:46;;;;;;;22.60;10.90;;;;;;;-0.53;70.58;100079.82;1691469;82;21116;-81
2020/12/08 01:25:12;;;;;;;23.20;12.03;;;;;;;-0.55;70.46;100076.02;1690822;81;21025;-81
2020/12/08 01:27:38;;;;;;;23.37;11.80;;;;;;;-0.47;70.20;100069.09;1692146;82;20978;-81
2020/12/08 01:30:05;;;;;;;27.47;12.53;;;;;;;-0.67;70.47;100078.47;1677395;82;21040;-82
2020/12/08 01:32:30;;;;;;;26.23;12.25;;;;;;;-0.66;70.45;100074.97;1694502;81;22554;-82
2020/12/08 01:34:56;;;;;;;24.23;11.00;;;;;;;-0.73;70.37;100071.42;1682722;82;21053;-83
2020/12/08 01:37:22;;;;;;;26.43;11.90;;;;;;;-0.65;70.14;100077.92;1686656;81;21001;-82
2020/12/08 01:39:48;;;;;;;22.33;11.37;;;;;;;-0.63;70.05;100067.02;1679314;83;20961;-83
2020/12/08 01:42:13;;;;;;;31.63;12.93;;;;;;;-0.68;69.91;100067.72;1687678;82;21047;-81
2020/12/08 01:44:48;;;;;;;22.83;10.70;;;;;;;-0.69;70.00;100067.36;1688786;81;21280;-83
2020/12/08 01:47:15;;;;;;;26.27;11.12;;;;;;;-0.72;69.82;100074.37;1695306;82;21233;-82
2020/12/08 01:49:46;;;;;;;;;;;;;;;-0.74;69.59;100081.41;1686881;82;21225;-82
2020/12/08 01:52:17;;;;;;;26.73;11.40;;;;;;;-0.70;69.50;100074.76;1690074;82;20282;-83
2020/12/08 01:54:43;;;;;;;21.27;10.43;;;;;;;-0.80;69.66;100078.33;1694420;81;21203;-82
2020/12/08 01:57:09;;;;;;;22.52;10.08;;;;;;;-0.74;69.40;100065.03;1693975;82;21231;-84
2020/12/08 01:59:35;;;;;;;22.25;11.05;;;;;;;-0.81;69.52;100073.63;1680895;82;21200;-83
2020/12/08 02:02:01;;;;;;;21.23;10.53;;;;;;;-0.75;69.67;100064.17;1689918;81;20954;-84
2020/12/08 02:04:26;;;;;;;20.30;10.30;;;;;;;-0.79;69.59;100065.28;1692209;82;21631;-83
2020/12/08 02:06:52;;;;;;;21.20;9.73;;;;;;;-0.75;69.43;100071.13;1688291;82;21088;-84
2020/12/08 02:09:18;;;;;;;22.40;10.50;;;;;;;-0.74;69.39;100074.93;1694316;81;21275;-81
2020/12/08 02:11:44;;;;;;;21.77;10.20;;;;;;;-0.72;69.58;100076.97;1695027;81;20978;-83
2020/12/08 02:14:09;;;;;;;24.47;10.30;;;;;;;-0.64;69.48;100080.89;1698914;81;21069;-83
2020/12/08 02:16:35;;;;;;;21.60;10.33;;;;;;;-0.72;69.61;100083.45;1690562;82;21029;-82
2020/12/08 02:19:01;;;;;;;22.02;9.98;;;;;;;-0.68;69.54;100074.20;1683756;82;21185;-82
2020/12/08 02:21:33;;;;;;;23.73;10.97;;;;;;;-0.68;69.54;100074.20;1688199;82;22590;-83
2020/12/08 02:23:59;;;;;;;25.25;10.53;;;;;;;-0.69;69.42;100081.63;1686557;81;21228;-81
2020/12/08 02:26:25;;;;;;;22.30;10.13;;;;;;;-0.72;69.28;100078.26;1685855;83;21216;-83
2020/12/08 02:28:53;;;;;;;23.37;10.30;;;;;;;-0.64;69.38;100057.56;1690022;82;21720;-81
2020/12/08 02:31:19;;;;;;;19.30;8.95;;;;;;;-0.69;69.39;100068.66;1678623;83;21188;-82
2020/12/08 02:33:45;;;;;;;17.80;8.83;;;;;;;-0.63;69.39;100073.50;1693605;82;21203;-82
2020/12/08 02:36:11;;;;;;;19.03;9.20;;;;;;;-0.57;69.39;100074.45;1690372;81;20974;-82
2020/12/08 02:38:36;;;;;;;20.97;10.27;;;;;;;-0.55;69.39;100067.41;1702098;82;20994;-82
2020/12/08 02:41:04;;;;;;;20.90;10.20;;;;;;;-0.62;69.59;100066.93;1690781;81;21014;-81
2020/12/08 02:43:30;;;;;;;17.30;8.48;;;;;;;-0.59;69.58;100071.09;1689353;81;21889;-82
2020/12/08 02:45:56;;;;;;;19.23;9.10;;;;;;;-0.59;69.45;100069.36;1703310;82;21944;-81
2020/12/08 02:48:22;;;;;;;20.72;9.70;;;;;;;-0.54;69.53;100079.47;1686739;81;21248;-81
2020/12/08 02:50:48;;;;;;;23.47;9.90;;;;;;;-0.51;69.57;100081.89;1694478;82;21091;-81
2020/12/08 02:53:13;;;;;;;18.50;8.50;;;;;;;-0.48;69.34;100077.83;1689772;81;21601;-81
2020/12/08 02:55:39;;;;;;;22.27;9.80;;;;;;;-0.32;68.98;100078.25;1693234;82;20981;-81
2020/12/08 02:58:05;;;;;;;21.93;9.37;;;;;;;-0.26;68.76;100067.52;1684070;82;21453;-83
2020/12/08 03:00:31;;;;;;;22.77;10.10;;;;;;;-0.23;68.68;100076.42;1692503;82;20977;-83
2020/12/08 03:02:56;;;;;;;19.00;9.47;;;;;;;-0.20;68.63;100080.13;1683302;82;21104;-82
2020/12/08 03:05:22;;;;;;;21.07;9.73;;;;;;;-0.20;68.46;100077.06;1696822;81;21680;-82
2020/12/08 03:07:48;;;;;;;19.37;9.60;;;;;;;-0.32;68.86;100080.84;1683722;82;20998;-81
2020/12/08 03:10:14;;;;;;;19.93;9.43;;;;;;;-0.33;69.04;100080.45;1682868;81;21094;-81
2020/12/08 03:12:40;;;;;;;17.77;9.60;;;;;;;-0.34;69.24;100081.37;1690170;82;21185;-82
2020/12/08 03:15:07;;;;;;;18.60;8.77;;;;;;;-0.43;69.29;100082.75;1683621;82;21073;-81
2020/12/08 03:17:33;;;;;;;18.52;8.50;;;;;;;-0.40;69.18;100084.70;1680201;83;21291;-81
2020/12/08 03:19:59;;;;;;;15.45;8.28;;;;;;;-0.38;69.27;100081.55;1691712;81;21260;-82
2020/12/08 03:22:25;;;;;;;16.63;8.13;;;;;;;-0.42;69.28;100078.77;1684395;82;21589;-82
2020/12/08 03:24:50;;;;;;;19.27;9.07;;;;;;;-0.31;69.09;100077.30;1685515;83;22716;-81
2020/12/08 03:27:17;;;;;;;16.13;8.57;;;;;;;-0.29;69.05;100074.17;1700567;81;21067;-81
2020/12/08 03:29:43;;;;;;;15.65;7.58;;;;;;;-0.29;68.79;100068.98;1691756;82;21778;-81
2020/12/08 03:32:09;;;;;;;14.77;7.47;;;;;;;-0.27;68.79;100077.51;1680413;83;20981;-81
2020/12/08 03:34:34;;;;;;;20.17;8.63;;;;;;;-0.20;68.64;100077.54;1675500;83;21434;-82
2020/12/08 03:37:00;;;;;;;15.03;7.80;;;;;;;-0.20;68.60;100077.54;1694825;82;20961;-81
2020/12/08 03:39:26;;;;;;;15.60;7.70;;;;;;;-0.27;68.75;100077.04;1689738;82;21045;-82
2020/12/08 03:42:00;;;;;;;18.13;8.47;;;;;;;-0.30;68.76;100068.61;1685901;82;21628;-81
2020/12/08 03:44:28;;;;;;;15.98;7.80;;;;;;;-0.32;68.89;100071.77;1685766;82;21164;-81
2020/12/08 03:46:53;;;;;;;;;;;;;;;-0.35;68.72;100074.06;1666042;83;21620;-81
2020/12/08 03:49:19;;;;;;;12.30;6.55;;;;;;;-0.33;68.54;100071.37;1682961;82;20506;-80
2020/12/08 03:51:47;;;;;;;12.23;6.63;;;;;;;-0.39;68.60;100073.41;1692521;81;21328;-81
2020/12/08 03:54:13;;;;;;;15.48;6.85;;;;;;;-0.40;68.45;100075.62;1690363;82;21204;-80
2020/12/08 03:56:38;;;;;;;12.30;6.67;;;;;;;-0.34;68.44;100070.99;1689469;81;21001;-81
2020/12/08 03:59:04;;;;;;;14.17;6.93;;;;;;;-0.35;68.37;100075.83;1699911;82;21310;-82
2020/12/08 04:01:30;;;;;;;14.23;6.87;;;;;;;-0.35;68.36;100070.64;1681731;82;20990;-80
2020/12/08 04:03:56;;;;;;;12.17;6.97;;;;;;;-0.34;68.08;100074.88;1689997;82;21001;-81
2020/12/08 04:06:23;;;;;;;12.93;6.33;;;;;;;-0.26;68.26;100075.30;1681498;82;21645;-81
2020/12/08 04:08:49;;;;;;;15.63;7.85;;;;;;;-0.34;68.17;100070.99;1682157;82;21246;-83
2020/12/08 04:11:15;;;;;;;14.57;7.00;;;;;;;-0.30;68.08;100074.62;1688950;82;21113;-80
2020/12/08 04:13:41;;;;;;;12.47;7.08;;;;;;;-0.41;68.01;100080.42;1678254;82;21176;-80
2020/12/08 04:16:13;;;;;;;12.23;6.58;;;;;;;-0.39;68.05;100076.00;1688003;82;21184;-80
2020/12/08 04:18:40;;;;;;;12.90;6.33;;;;;;;-0.37;68.02;100075.44;1697606;82;21141;-80
2020/12/08 04:21:06;;;;;;;13.60;7.20;;;;;;;-0.44;68.24;100081.89;1688740;82;21668;-81
2020/12/08 04:23:32;;;;;;;15.65;6.20;;;;;;;-0.52;68.47;100069.83;1695547;82;22553;-81
2020/12/08 04:25:58;;;;;;;12.80;7.07;;;;;;;-0.56;68.58;100077.41;1684784;82;21002;-82
2020/12/08 04:28:24;;;;;;;13.83;7.23;;;;;;;-0.48;68.40;100075.23;1681628;83;21057;-82
2020/12/08 04:30:49;;;;;;;15.00;6.77;;;;;;;-0.52;68.60;100077.61;1693250;81;21041;-81
2020/12/08 04:33:15;;;;;;;13.07;6.97;;;;;;;-0.45;68.56;100069.87;1695609;82;20974;-81
2020/12/08 04:35:42;;;;;;;12.87;6.97;;;;;;;-0.43;68.58;100068.02;1698379;82;22022;-81
2020/12/08 04:38:09;;;;;;;16.10;7.40;;;;;;;-0.49;68.47;100067.06;1686959;83;21609;-80
2020/12/08 04:40:36;;;;;;;15.00;7.42;;;;;;;-0.42;68.38;100073.58;1686128;82;21137;-80
2020/12/08 04:43:04;;;;;;;16.25;7.17;;;;;;;-0.59;68.60;100077.13;1696415;81;21207;-80
2020/12/08 04:45:30;;;;;;;14.63;7.22;;;;;;;-0.57;68.60;100078.34;1690581;82;21256;-81
2020/12/08 04:47:56;;;;;;;10.57;5.50;;;;;;;-0.51;68.57;100076.70;1693244;82;21090;-81
2020/12/08 04:50:22;;;;;;;12.60;6.65;;;;;;;-0.46;68.30;100078.56;1664976;83;21209;-81
2020/12/08 04:52:50;;;;;;;12.50;6.80;;;;;;;-0.40;68.36;100093.78;1670992;83;21064;-82
2020/12/08 04:55:16;;;;;;;13.88;7.10;;;;;;;-0.34;68.20;100087.86;1686526;82;21755;-82
2020/12/08 04:57:41;;;;;;;12.83;6.70;;;;;;;-0.34;68.18;100080.07;1691084;82;20994;-82
2020/12/08 05:00:11;;;;;;;14.70;6.60;;;;;;;-0.44;68.23;100084.96;1686628;82;21210;-81
2020/12/08 05:02:52;;;;;;;14.53;6.65;;;;;;;-0.43;68.31;100086.17;1691862;82;21142;-82
2020/12/08 05:05:19;;;;;;;13.15;7.00;;;;;;;-0.40;68.26;100085.17;1700723;82;21271;-83
2020/12/08 05:07:45;;;;;;;13.85;6.92;;;;;;;-0.41;68.12;100085.61;1691633;82;21260;-81
2020/12/08 05:10:14;;;;;;;13.95;6.83;;;;;;;-0.41;68.12;100085.61;1687743;82;21572;-84
2020/12/08 05:12:39;;;;;;;14.95;6.50;;;;;;;-0.39;68.20;100083.78;1675621;82;22049;-83
2020/12/08 05:15:15;;;;;;;12.83;6.47;;;;;;;-0.33;68.18;100092.13;1685571;82;21081;-80
2020/12/08 05:17:41;;;;;;;11.48;6.05;;;;;;;-0.25;68.15;100084.73;1687100;82;21192;-82
2020/12/08 05:20:09;;;;;;;14.07;6.90;;;;;;;-0.29;68.07;100083.26;1697423;82;21412;-81
2020/12/08 05:22:35;;;;;;;13.48;6.78;;;;;;;-0.24;68.26;100089.01;1691699;82;21985;-81
2020/12/08 05:25:13;;;;;;;11.83;6.00;;;;;;;-0.32;68.25;100080.84;1689721;82;21467;-82
2020/12/08 05:27:40;;;;;;;12.18;6.15;;;;;;;-0.28;68.07;100080.58;1693691;81;21196;-82
2020/12/08 05:30:08;;;;;;;12.05;6.58;;;;;;;-0.27;68.07;100077.04;1690875;82;21585;-81
2020/12/08 05:32:40;;;;;;;10.95;6.50;;;;;;;-0.26;67.89;100077.42;1688811;82;21157;-81
2020/12/08 05:35:11;;;;;;;12.53;6.05;;;;;;;-0.35;67.92;100079.72;1690103;83;21609;-81
2020/12/08 05:37:43;;;;;;;13.35;5.75;;;;;;;-0.33;67.86;100088.23;1691969;82;22044;-83
2020/12/08 05:40:14;;;;;;;13.18;6.72;;;;;;;-0.32;67.98;100091.22;1693364;82;21232;-81
2020/12/08 05:42:45;;;;;;;16.82;7.33;;;;;;;-0.34;67.87;100093.91;1705967;82;21181;-80
2020/12/08 05:45:13;;;;;;;12.75;6.65;;;;;;;-0.33;68.09;100088.23;1692675;82;21212;-79
2020/12/08 05:47:50;;;;;;;11.10;6.58;;;;;;;-0.38;68.06;100090.63;1692110;81;21210;-80
2020/12/08 05:50:17;;;;;;;11.08;6.22;;;;;;;-0.38;68.11;100092.39;1685894;82;21235;-80
2020/12/08 05:52:51;;;;;;;10.72;6.62;;;;;;;-0.40;68.10;100087.30;1688774;82;28339;-80
2020/12/08 05:55:21;;;;;;;13.50;7.28;;;;;;;-0.35;68.05;100093.98;1687564;82;21172;-81
2020/12/08 05:57:47;;;;;;;12.28;7.03;;;;;;;-0.40;68.18;100089.89;1678615;82;21176;-83
2020/12/08 06:00:27;;;;;;;14.40;7.40;;;;;;;-0.34;68.14;100093.05;1692427;82;21236;-79
2020/12/08 06:02:53;;;;;;;14.60;7.33;;;;;;;-0.32;68.22;100093.34;1695771;82;21228;-80
2020/12/08 06:05:31;;;;;;;13.40;7.10;;;;;;;-0.24;67.87;100096.80;1694083;82;21179;-82
2020/12/08 06:07:58;;;;;;;13.55;7.90;;;;;;;-0.28;67.81;100091.39;1693475;82;21225;-81
2020/12/08 06:10:24;;;;;;;11.20;6.15;;;;;;;-0.31;67.92;100092.88;1694326;82;21440;-79
2020/12/08 06:12:59;;;;;;;13.73;7.30;;;;;;;-0.30;67.84;100092.78;1695921;81;21938;-79
2020/12/08 06:15:26;;;;;;;13.20;7.33;;;;;;;-0.32;68.00;100096.41;1694138;81;22160;-80
2020/12/08 06:17:53;;;;;;;15.35;6.45;;;;;;;-0.29;68.00;100100.12;1699794;81;21262;-82
2020/12/08 06:20:19;;;;;;;11.48;6.45;;;;;;;-0.27;67.95;100106.88;1684034;82;21204;-83
2020/12/08 06:22:58;;;;;;;14.18;7.03;;;;;;;-0.31;68.02;100102.81;1700251;82;21193;-82
2020/12/08 06:25:25;;;;;;;11.90;6.17;;;;;;;-0.28;68.10;100100.48;1702576;82;21211;-83
2020/12/08 06:27:51;;;;;;;12.58;6.65;;;;;;;-0.24;67.89;100107.17;1687483;81;21751;-87
2020/12/08 06:30:21;;;;;;;11.47;6.33;;;;;;;-0.17;67.79;100103.31;1694252;81;21163;-81
2020/12/08 06:32:47;;;;;;;12.53;6.83;;;;;;;-0.23;67.89;100104.97;1687899;81;21093;-83
2020/12/08 06:35:14;;;;;;;12.63;7.10;;;;;;;-0.19;67.93;100109.89;1691313;81;20978;-82
2020/12/08 06:37:51;;;;;;;13.35;6.72;;;;;;;-0.22;67.86;100118.30;1690216;81;21751;-81
2020/12/08 06:40:25;;;;;;;15.63;8.15;;;;;;;-0.13;67.81;100117.77;1688087;81;21284;-88
2020/12/08 06:42:51;;;;;;;14.38;7.80;;;;;;;0.01;67.51;100118.73;1692394;82;21203;-83
2020/12/08 06:45:20;;;;;;;15.50;7.90;;;;;;;0.10;67.13;100133.78;1695614;82;21176;-84
2020/12/08 06:47:46;;;;;;;15.65;7.58;;;;;;;0.06;67.10;100120.12;1691150;82;21133;-81
2020/12/08 06:50:25;;;;;;;13.35;7.05;;;;;;;-0.01;67.23;100126.14;1683725;82;21187;-83
2020/12/08 06:52:58;;;;;;;13.15;7.62;;;;;;;-0.09;67.45;100112.78;1696685;81;21282;-82
2020/12/08 06:55:25;;;;;;;15.13;8.75;;;;;;;-0.10;67.57;100124.08;1701823;82;21187;-81
2020/12/08 06:57:51;;;;;;;12.80;7.33;;;;;;;-0.03;67.62;100113.73;1690721;82;21203;-79
2020/12/08 07:00:17;;;;;;;16.93;8.43;;;;;;;-0.01;67.60;100124.84;1686632;82;21061;-78
2020/12/08 07:02:49;;;;;;;15.47;8.27;;;;;;;-0.06;67.75;100117.80;1673130;81;20990;-81
2020/12/08 07:05:28;;;;;;;17.48;8.80;;;;;;;0.08;67.64;100114.84;1685325;82;21304;-79
2020/12/08 07:07:54;;;;;;;16.32;8.78;;;;;;;0.04;67.78;100105.58;1698989;82;21463;-83
2020/12/08 07:10:21;;;;;;;16.70;8.93;;;;;;;-0.06;68.09;100113.91;1690641;81;21147;-81
2020/12/08 07:12:49;;;;;;;19.10;8.93;;;;;;;-0.06;68.04;100119.09;1688593;82;21152;-81
2020/12/08 07:15:19;;;;;;;14.68;8.08;;;;;;;-0.10;68.14;100120.19;1674800;82;21212;-79
2020/12/08 07:18:04;;;;;;;18.05;8.88;;;;;;;-0.10;68.14;100120.19;1680950;82;21273;-80
2020/12/08 07:20:30;;;;;;;20.02;9.05;;;;;;;-0.08;68.20;100130.48;1698991;82;21269;-78
2020/12/08 07:22:56;;;;;;;15.32;8.10;;;;;;;-0.14;68.25;100123.91;1698461;82;21716;-78
2020/12/08 07:25:22;;;;;;;19.40;9.13;;;;;;;-0.05;68.03;100115.58;1691481;82;21046;-78
2020/12/08 07:27:54;;;;;;;17.52;8.60;;;;;;;-0.08;68.25;100120.95;1696146;81;21188;-78
2020/12/08 07:30:24;;;;;;;17.90;9.65;;;;;;;-0.02;68.21;100124.94;1704155;82;22168;-78
2020/12/08 07:32:53;;;;;;;19.37;9.43;;;;;;;-0.09;68.51;100130.95;1679803;82;21604;-78
2020/12/08 07:35:24;;;;;;;16.02;8.98;;;;;;;-0.03;68.46;100133.20;1690713;82;21215;-79
2020/12/08 07:37:52;;;;;;;17.42;8.73;;;;;;;-0.01;68.31;100132.63;1685617;82;22078;-78
2020/12/08 07:40:18;;;;;;;17.10;8.50;;;;;;;0.02;68.22;100138.56;1686417;82;21205;-78
2020/12/08 07:42:52;;;;;;;18.83;8.40;;;;;;;0.03;67.94;100140.24;1690890;82;21191;-78
2020/12/08 07:45:19;;;;;;;15.68;7.87;;;;;;;-0.01;67.72;100141.72;1700047;82;21620;-79
2020/12/08 07:47:52;;;;;;;13.28;5.87;;;;;;;-0.07;67.36;100148.56;1697082;82;21258;-79
2020/12/08 07:50:27;;;;;;;14.90;7.35;;;;;;;-0.14;67.33;100156.34;1704898;81;22275;-78
2020/12/08 07:53:02;;;;;;;13.88;7.15;;;;;;;-0.14;67.23;100153.75;1689657;81;21229;-78
2020/12/08 07:55:41;;;;;;;17.42;7.17;;;;;;;-0.10;67.36;100161.71;1684661;82;21996;-78
2020/12/08 07:58:07;;;;;;;13.13;6.37;;;;;;;-0.16;67.44;100167.25;1689323;81;21207;-79
2020/12/08 08:00:33;;;;;;;16.27;7.17;;;;;;;-0.08;67.23;100166.81;1679658;83;21156;-80
2020/12/08 08:02:58;;;;;;;17.13;8.07;;;;;;;-0.08;67.21;100166.37;1706562;82;21609;-78
2020/12/08 08:05:24;;;;;;;17.40;7.53;;;;;;;-0.10;67.23;100156.52;1697121;82;21072;-78
2020/12/08 08:07:54;;;;;;;14.23;6.90;;;;;;;-0.14;67.17;100166.72;1686237;82;21413;-79
2020/12/08 08:10:21;;;;;;;11.55;6.55;;;;;;;-0.11;67.28;100158.77;1698376;82;21241;-78
2020/12/08 08:12:47;;;;;;;11.53;6.63;;;;;;;-0.09;67.21;100164.69;1697781;81;21033;-77
2020/12/08 08:15:13;;;;;;;13.33;6.50;;;;;;;-0.11;67.30;100154.88;1698284;82;21128;-78
2020/12/08 08:17:39;;;;;;;12.80;6.70;;;;;;;-0.11;67.27;100163.95;1699683;82;20954;-78
2020/12/08 08:20:06;;;;;;;12.07;6.40;;;;;;;0.02;67.21;100164.52;1702772;82;22062;-78
2020/12/08 08:22:32;;;;;;;13.48;6.37;;;;;;;0.09;67.04;100160.66;1686739;83;21699;-78
2020/12/08 08:24:58;;;;;;;14.83;6.90;;;;;;;0.11;66.88;100162.25;1698185;82;21133;-78
2020/12/08 08:27:24;;;;;;;16.30;6.87;;;;;;;0.05;66.82;100169.54;1697620;81;21639;-78
2020/12/08 08:29:49;;;;;;;12.63;6.47;;;;;;;0.12;66.69;100162.61;1681610;83;21992;-78
2020/12/08 08:32:15;;;;;;;17.43;7.37;;;;;;;0.19;66.55;100170.90;1694732;82;21989;-79
2020/12/08 08:34:42;;;;;;;13.20;7.17;;;;;;;0.15;66.64;100169.39;1697844;82;21048;-79
2020/12/08 08:37:08;;;;;;;14.53;6.97;;;;;;;0.20;66.58;100171.25;1710046;82;21108;-78
2020/12/08 08:39:34;;;;;;;17.33;7.90;;;;;;;0.28;66.36;100170.80;1714261;81;21520;-77
2020/12/08 08:42:00;;;;;;;11.68;6.55;;;;;;;0.24;66.43;100164.96;1708046;82;21131;-77
2020/12/08 08:44:25;;;;;;;14.93;8.47;;;;;;;0.28;66.31;100161.27;1708605;82;21871;-77
2020/12/08 08:46:51;;;;;;;13.33;7.17;;;;;;;0.31;66.14;100164.13;1707785;82;20934;-77
2020/12/08 08:49:17;;;;;;;17.87;7.60;;;;;;;0.31;66.24;100164.98;1708923;82;20934;-77
2020/12/08 08:51:47;;;;;;;17.20;8.40;;;;;;;0.33;66.37;100154.03;1709185;82;20970;-76
2020/12/08 08:54:15;;;;;;;15.40;7.80;;;;;;;0.41;66.40;100159.25;1708945;82;21144;-77
2020/12/08 08:56:41;;;;;;;;;;;;;;;0.41;66.40;100159.25;1710341;82;21233;-79
2020/12/08 08:59:07;;;;;;;13.93;7.80;;;;;;;0.37;66.26;100159.05;1708092;82;20325;-77
2020/12/08 09:01:33;;;;;;;15.20;7.47;;;;;;;0.39;66.35;100162.38;1708745;82;20977;-77
2020/12/08 09:03:59;;;;;;;15.80;7.85;;;;;;;0.41;66.28;100168.34;1710189;82;21088;-77
2020/12/08 09:06:25;;;;;;;13.53;6.93;;;;;;;0.37;66.41;100162.95;1708517;82;21028;-77
2020/12/08 09:08:51;;;;;;;15.50;8.60;;;;;;;0.39;66.35;100154.59;1708873;82;21296;-77
2020/12/08 09:11:17;;;;;;;16.40;7.93;;;;;;;0.39;66.54;100160.64;1709467;82;21013;-78
2020/12/08 09:13:43;;;;;;;17.07;8.10;;;;;;;0.42;66.44;100159.16;1708006;82;21013;-78
2020/12/08 09:16:09;;;;;;;17.83;8.70;;;;;;;0.43;66.58;100159.98;1708308;82;21182;-77
2020/12/08 09:18:35;;;;;;;18.70;8.80;;;;;;;0.41;66.70;100158.78;1708496;82;21709;-78
2020/12/08 09:21:02;;;;;;;20.03;8.87;;;;;;;0.42;66.64;100162.20;1708446;82;22097;-77
2020/12/08 09:23:29;;;;;;;18.92;8.93;;;;;;;0.50;66.69;100160.01;1707681;82;21160;-77
2020/12/08 09:25:57;;;;;;;17.07;8.70;;;;;;;0.51;66.60;100157.76;1708013;82;21017;-80
2020/12/08 09:28:25;;;;;;;16.93;8.75;;;;;;;0.41;66.90;100163.97;1708677;82;21383;-80
2020/12/08 09:30:50;;;;;;;16.05;8.63;;;;;;;0.48;66.98;100154.05;1708895;82;21331;-79
2020/12/08 09:33:16;;;;;;;18.73;9.00;;;;;;;0.42;67.05;100167.40;1707844;82;21147;-79
2020/12/08 09:35:42;;;;;;;20.20;9.23;;;;;;;0.52;66.99;100177.62;1694178;82;21059;-79
2020/12/08 09:38:09;;;;;;;20.07;9.23;;;;;;;0.47;67.03;100167.98;1694493;82;21064;-79
2020/12/08 09:40:35;;;;;;;19.25;9.30;;;;;;;0.40;67.32;100182.25;1688535;82;21140;-84
2020/12/08 09:43:01;;;;;;;20.37;9.68;;;;;;;0.48;67.13;100175.69;1685310;81;21199;-81
2020/12/08 09:45:27;;;;;;;20.77;9.40;;;;;;;0.47;67.38;100179.20;1682494;81;21243;-81
2020/12/08 09:47:52;;;;;;;20.63;9.57;;;;;;;0.47;67.26;100175.77;1691058;82;21037;-81
2020/12/08 09:50:18;;;;;;;25.30;10.30;;;;;;;0.49;67.40;100173.91;1701651;82;22331;-81
2020/12/08 09:52:44;;;;;;;21.60;9.97;;;;;;;0.59;67.12;100176.79;1699223;82;21094;-81
2020/12/08 09:55:10;;;;;;;20.53;10.33;;;;;;;0.49;67.30;100181.70;1687590;82;21053;-81
2020/12/08 09:57:35;;;;;;;21.80;10.40;;;;;;;0.52;67.52;100180.23;1692085;82;21296;-80
2020/12/08 10:00:02;;;;;;;24.90;11.07;;;;;;;0.58;67.43;100181.16;1679890;82;21525;-83
2020/12/08 10:02:28;;;;;;;24.95;9.93;;;;;;;0.55;67.66;100181.34;1693944;81;21236;-81
2020/12/08 10:04:54;;;;;;;26.50;11.10;;;;;;;0.56;67.79;100186.92;1692619;82;23037;-80
2020/12/08 10:07:25;;;;;;;24.50;11.20;;;;;;;0.56;67.83;100185.63;1698268;82;22390;-81
2020/12/08 10:09:51;;;;;;;20.25;9.75;;;;;;;0.59;67.99;100184.14;1675196;82;21190;-80
2020/12/08 10:12:16;;;;;;;22.37;10.83;;;;;;;0.62;67.80;100183.96;1694943;81;22574;-79
2020/12/08 10:14:43;;;;;;;22.10;10.63;;;;;;;0.73;67.76;100194.16;1702126;82;21635;-79
2020/12/08 10:17:14;;;;;;;19.87;10.45;;;;;;;0.70;67.65;100191.30;1696049;81;21744;-80
2020/12/08 10:19:41;;;;;;;24.92;11.43;;;;;;;0.75;67.39;100194.92;1690930;81;21681;-80
2020/12/08 10:22:07;;;;;;;25.08;11.38;;;;;;;0.75;67.39;100194.92;1694641;81;21841;-79
2020/12/08 10:24:33;;;;;;;22.87;11.27;;;;;;;0.73;67.70;100186.36;1710451;81;21044;-82
2020/12/08 10:26:59;;;;;;;24.10;11.23;;;;;;;0.68;67.88;100194.44;1702886;82;21002;-83
2020/12/08 10:29:24;;;;;;;22.57;10.40;;;;;;;0.71;68.01;100190.35;1700462;82;21028;-78
2020/12/08 10:31:51;;;;;;;21.77;11.23;;;;;;;0.70;68.04;100185.63;1696651;81;21753;-78
2020/12/08 10:34:18;;;;;;;24.45;11.15;;;;;;;0.75;67.93;100195.75;1679297;82;22397;-80
2020/12/08 10:36:44;;;;;;;19.25;10.58;;;;;;;0.75;67.93;100195.75;1689084;81;21629;-79
2020/12/08 10:39:15;;;;;;;24.77;12.13;;;;;;;0.77;67.93;100195.66;1699935;82;21630;-80
2020/12/08 10:41:41;;;;;;;21.15;11.55;;;;;;;0.84;67.76;100190.44;1684903;82;21188;-82
2020/12/08 10:44:07;;;;;;;21.40;10.28;;;;;;;0.96;67.64;100192.30;1683053;82;21545;-81
2020/12/08 10:46:36;;;;;;;18.30;9.97;;;;;;;1.10;67.25;100189.33;1691366;81;21485;-80
2020/12/08 10:49:03;;;;;;;21.60;11.30;;;;;;;0.98;67.25;100185.27;1697486;81;21239;-82
2020/12/08 10:51:29;;;;;;;19.32;9.60;;;;;;;1.01;67.39;100190.27;1693626;81;21220;-77
2020/12/08 10:53:55;;;;;;;25.03;12.07;;;;;;;0.97;67.45;100175.78;1692860;81;26804;-80
2020/12/08 10:56:24;;;;;;;29.10;12.07;;;;;;;1.01;67.56;100169.47;1687240;82;21407;-80
2020/12/08 10:58:51;;;;;;;24.98;11.73;;;;;;;0.95;67.60;100171.59;1684568;82;21273;-80
2020/12/08 11:01:23;;;;;;;20.57;10.98;;;;;;;0.94;67.75;100173.36;1700134;82;21213;-81
2020/12/08 11:03:49;;;;;;;24.37;11.95;;;;;;;0.96;67.80;100178.00;1691892;81;21298;-79
2020/12/08 11:06:24;;;;;;;24.27;12.23;;;;;;;1.01;67.79;100170.77;1685265;82;21704;-79
2020/12/08 11:08:50;;;;;;;25.00;11.75;;;;;;;0.88;67.81;100162.87;1689889;82;21204;-80
2020/12/08 11:11:26;;;;;;;26.20;11.78;;;;;;;0.89;67.83;100157.22;1701877;82;21200;-79
2020/12/08 11:13:53;;;;;;;22.58;11.22;;;;;;;0.82;68.03;100152.02;1690003;81;21152;-80
2020/12/08 11:16:20;;;;;;;22.50;11.53;;;;;;;0.83;67.83;100142.83;1696532;81;21216;-78
2020/12/08 11:18:45;;;;;;;24.63;12.18;;;;;;;0.86;67.83;100143.94;1697509;81;21192;-81